createdAt,value
2018-11-23T00:00:22.771Z,0.50
2018-11-23T00:02:50.612Z,0.40
2018-11-23T00:05:18.276Z,0.50
2018-11-23T00:07:46.143Z,0.50
2018-11-23T00:10:16.751Z,0.50
2018-11-23T00:12:44.295Z,0.50
2018-11-23T00:15:13.799Z,0.30
2018-11-23T00:17:41.356Z,0.30
2018-11-23T00:20:12.202Z,0.20
2018-11-23T00:22:39.774Z,0.30
2018-11-23T00:25:08.822Z,0.30
2018-11-23T00:27:36.467Z,0.30
2018-11-23T00:30:04.496Z,0.30
2018-11-23T00:32:31.967Z,0.30
2018-11-23T00:34:59.351Z,0.30
2018-11-23T00:37:26.743Z,0.20
2018-11-23T00:39:54.197Z,0.30
2018-11-23T00:42:21.616Z,0.20
2018-11-23T00:44:49.039Z,0.30
2018-11-23T00:47:16.494Z,0.40
2018-11-23T00:49:43.869Z,0.50
2018-11-23T00:52:11.331Z,0.40
2018-11-23T00:54:38.736Z,0.30
2018-11-23T00:57:06.136Z,0.30
2018-11-23T00:59:33.561Z,0.30
2018-11-23T01:02:02.783Z,0.30
2018-11-23T01:04:30.289Z,0.30
2018-11-23T01:06:57.684Z,0.40
2018-11-23T01:09:25.080Z,0.40
2018-11-23T01:11:52.634Z,0.70
2018-11-23T01:14:20.076Z,0.60
2018-11-23T01:16:47.479Z,0.50
2018-11-23T01:19:14.942Z,0.40
2018-11-23T01:21:42.304Z,0.40
2018-11-23T01:24:09.698Z,0.40
2018-11-23T01:26:37.108Z,0.30
2018-11-23T01:29:04.637Z,0.30
2018-11-23T01:31:32.050Z,0.30
2018-11-23T01:33:59.469Z,0.30
2018-11-23T01:36:26.894Z,0.30
2018-11-23T01:38:54.329Z,0.20
2018-11-23T01:41:21.798Z,0.30
2018-11-23T01:43:49.189Z,0.30
2018-11-23T01:46:16.590Z,0.30
2018-11-23T01:48:44.021Z,0.40
2018-11-23T01:51:11.421Z,0.40
2018-11-23T01:53:38.838Z,0.30
2018-11-23T01:56:06.245Z,0.30
2018-11-23T01:58:33.682Z,0.30
2018-11-23T02:01:01.088Z,0.30
2018-11-23T02:03:28.563Z,0.40
2018-11-23T02:05:55.998Z,0.60
2018-11-23T02:08:23.435Z,0.60
2018-11-23T02:10:50.824Z,0.60
2018-11-23T02:13:18.299Z,0.50
2018-11-23T02:15:45.721Z,0.50
2018-11-23T02:18:13.138Z,0.40
2018-11-23T02:20:40.581Z,0.40
2018-11-23T02:23:08.033Z,0.40
2018-11-23T02:25:35.409Z,0.40
2018-11-23T02:28:02.814Z,0.40
2018-11-23T02:30:30.238Z,0.40
2018-11-23T02:32:57.618Z,0.40
2018-11-23T02:35:25.058Z,0.40
2018-11-23T02:37:52.441Z,0.50
2018-11-23T02:40:20.384Z,0.50
2018-11-23T02:42:47.886Z,0.50
2018-11-23T02:45:18.085Z,0.50
2018-11-23T02:47:46.036Z,0.50
2018-11-23T02:50:13.565Z,0.50
2018-11-23T02:52:41.538Z,0.40
2018-11-23T02:55:09.973Z,0.40
2018-11-23T02:57:37.462Z,0.40
2018-11-23T03:00:07.230Z,0.50
2018-11-23T03:02:34.798Z,0.50
2018-11-23T03:05:02.190Z,0.70
2018-11-23T03:07:29.604Z,0.70
2018-11-23T03:09:57.041Z,0.70
2018-11-23T03:12:24.445Z,0.60
2018-11-23T03:14:51.908Z,0.60
2018-11-23T03:17:19.302Z,0.60
2018-11-23T03:19:46.698Z,0.60
2018-11-23T03:22:14.133Z,0.60
2018-11-23T03:24:41.506Z,0.50
2018-11-23T03:27:08.900Z,0.50
2018-11-23T03:29:36.350Z,0.40
2018-11-23T03:32:03.957Z,0.40
2018-11-23T03:34:31.404Z,0.50
2018-11-23T03:36:58.785Z,0.50
2018-11-23T03:39:26.174Z,0.60
2018-11-23T03:41:53.580Z,0.60
2018-11-23T03:44:20.966Z,0.60
2018-11-23T03:46:48.637Z,0.70
2018-11-23T03:49:16.062Z,0.80
2018-11-23T03:51:43.720Z,0.80
2018-11-23T03:54:11.134Z,0.80
2018-11-23T03:56:39.513Z,0.80
2018-11-23T03:59:06.940Z,0.70
2018-11-23T04:01:34.353Z,0.80
2018-11-23T04:04:01.781Z,1.00
2018-11-23T04:06:29.238Z,1.00
2018-11-23T04:08:56.629Z,1.00
2018-11-23T04:11:24.023Z,0.90
2018-11-23T04:13:51.470Z,1.10
2018-11-23T04:16:18.860Z,1.00
2018-11-23T04:18:46.251Z,0.90
2018-11-23T04:21:13.742Z,0.90
2018-11-23T04:23:41.162Z,1.00
2018-11-23T04:26:08.552Z,0.90
2018-11-23T04:28:35.998Z,0.80
2018-11-23T04:31:03.394Z,0.80
2018-11-23T04:33:30.819Z,0.80
2018-11-23T04:35:58.232Z,0.90
2018-11-23T04:38:25.628Z,0.90
2018-11-23T04:40:53.117Z,0.90
2018-11-23T04:43:20.548Z,0.80
2018-11-23T04:45:47.991Z,0.70
2018-11-23T04:48:15.416Z,0.70
2018-11-23T04:50:42.819Z,0.70
2018-11-23T04:53:10.259Z,0.70
2018-11-23T04:55:37.745Z,0.60
2018-11-23T04:58:05.268Z,0.70
2018-11-23T05:00:32.820Z,0.70
2018-11-23T05:03:00.309Z,0.70
2018-11-23T05:05:27.738Z,0.70
2018-11-23T05:07:55.179Z,0.80
2018-11-23T05:10:22.626Z,0.90
2018-11-23T05:12:50.047Z,0.90
2018-11-23T05:15:18.183Z,1.00
2018-11-23T05:17:45.930Z,1.00
2018-11-23T05:20:13.946Z,0.90
2018-11-23T05:22:41.829Z,1.00
2018-11-23T05:25:10.461Z,1.10
2018-11-23T05:27:37.873Z,1.10
2018-11-23T05:30:08.482Z,1.20
2018-11-23T05:32:35.922Z,1.20
2018-11-23T05:35:03.424Z,1.20
2018-11-23T05:37:30.810Z,1.20
2018-11-23T05:39:58.218Z,1.00
2018-11-23T05:42:25.621Z,1.10
2018-11-23T05:44:53.002Z,1.10
2018-11-23T05:47:20.416Z,1.10
2018-11-23T05:49:47.817Z,0.90
2018-11-23T05:52:16.081Z,0.90
2018-11-23T05:54:43.504Z,0.80
2018-11-23T05:57:10.886Z,0.80
2018-11-23T05:59:38.343Z,0.80
2018-11-23T06:02:05.759Z,0.90
2018-11-23T06:04:33.179Z,1.00
2018-11-23T06:07:00.663Z,1.10
2018-11-23T06:09:28.042Z,1.00
2018-11-23T06:11:55.463Z,0.90
2018-11-23T06:14:22.954Z,0.90
2018-11-23T06:16:50.347Z,0.90
2018-11-23T06:19:17.786Z,0.90
2018-11-23T06:21:45.204Z,0.80
2018-11-23T06:24:12.573Z,0.80
2018-11-23T06:26:40.121Z,0.80
2018-11-23T06:29:07.497Z,0.70
2018-11-23T06:31:34.898Z,0.70
2018-11-23T06:34:02.358Z,0.70
2018-11-23T06:36:29.737Z,0.70
2018-11-23T06:38:57.105Z,0.70
2018-11-23T06:41:24.512Z,0.70
2018-11-23T06:43:51.888Z,0.70
2018-11-23T06:46:19.293Z,0.80
2018-11-23T06:48:46.751Z,0.80
2018-11-23T06:51:14.154Z,0.70
2018-11-23T06:53:41.538Z,0.70
2018-11-23T06:56:08.972Z,0.70
2018-11-23T06:58:36.386Z,0.70
2018-11-23T07:01:04.049Z,0.70
2018-11-23T07:03:31.461Z,0.60
2018-11-23T07:05:59.261Z,0.60
2018-11-23T07:08:26.743Z,0.60
2018-11-23T07:10:57.813Z,0.60
2018-11-23T07:13:25.249Z,0.60
2018-11-23T07:15:52.626Z,0.70
2018-11-23T07:18:20.064Z,0.70
2018-11-23T07:20:47.454Z,0.80
2018-11-23T07:23:14.832Z,0.90
2018-11-23T07:25:42.274Z,0.80
2018-11-23T07:28:15.384Z,0.80
2018-11-23T07:30:37.106Z,0.70
2018-11-23T07:33:05.014Z,0.70
2018-11-23T07:35:32.479Z,0.70
2018-11-23T07:37:59.886Z,0.70
2018-11-23T07:40:40.716Z,0.70
2018-11-23T07:43:08.118Z,0.80
2018-11-23T07:45:35.531Z,1.10
2018-11-23T07:48:02.996Z,1.10
2018-11-23T07:50:30.418Z,1.30
2018-11-23T07:52:57.852Z,1.30
2018-11-23T07:55:25.248Z,1.20
2018-11-23T07:57:52.834Z,1.10
2018-11-23T08:00:21.667Z,1.10
2018-11-23T08:02:49.321Z,1.00
2018-11-23T08:05:17.512Z,1.10
2018-11-23T08:07:44.892Z,1.20
2018-11-23T08:10:13.003Z,1.30
2018-11-23T08:12:41.698Z,1.30
2018-11-23T08:15:12.294Z,1.30
2018-11-23T08:17:39.939Z,1.30
2018-11-23T08:20:08.566Z,1.30
2018-11-23T08:22:36.070Z,1.20
2018-11-23T08:25:03.514Z,1.30
2018-11-23T08:27:30.963Z,1.50
2018-11-23T08:29:58.378Z,1.40
2018-11-23T08:32:25.762Z,1.30
2018-11-23T08:34:53.181Z,1.30
2018-11-23T08:37:20.623Z,1.50
2018-11-23T08:39:48.028Z,1.40
2018-11-23T08:42:15.489Z,1.40
2018-11-23T08:44:42.910Z,1.40
2018-11-23T08:47:10.282Z,1.50
2018-11-23T08:49:37.679Z,1.50
2018-11-23T08:52:05.411Z,1.60
2018-11-23T08:54:32.802Z,1.50
2018-11-23T08:57:00.216Z,1.50
2018-11-23T08:59:27.622Z,1.40
2018-11-23T09:01:55.030Z,1.50
2018-11-23T09:04:22.438Z,1.50
2018-11-23T09:06:49.900Z,1.50
2018-11-23T09:09:17.617Z,1.60
2018-11-23T09:11:45.966Z,1.70
2018-11-23T09:14:16.549Z,1.60
2018-11-23T09:16:45.039Z,1.70
2018-11-23T09:19:13.601Z,1.60
2018-11-23T09:21:42.693Z,1.70
2018-11-23T09:24:11.345Z,1.70
2018-11-23T09:26:39.798Z,1.70
2018-11-23T09:29:07.776Z,1.70
2018-11-23T09:31:35.675Z,1.80
2018-11-23T09:34:04.165Z,1.80
2018-11-23T09:36:32.118Z,1.70
2018-11-23T09:39:02.012Z,1.70
2018-11-23T09:41:31.298Z,1.70
2018-11-23T09:44:00.047Z,1.70
2018-11-23T09:46:29.566Z,1.70
2018-11-23T09:48:58.545Z,1.60
2018-11-23T09:51:26.562Z,1.60
2018-11-23T09:53:54.443Z,1.60
2018-11-23T09:56:23.985Z,1.70
2018-11-23T09:58:53.696Z,1.70
2018-11-23T10:01:22.729Z,1.80
2018-11-23T10:03:50.600Z,1.80
2018-11-23T10:06:19.792Z,1.90
2018-11-23T10:08:48.484Z,1.80
2018-11-23T10:11:16.378Z,1.80
2018-11-23T10:13:44.249Z,1.80
2018-11-23T10:16:12.008Z,1.80
2018-11-23T10:18:39.779Z,1.80
2018-11-23T10:21:07.569Z,1.80
2018-11-23T10:23:35.299Z,1.70
2018-11-23T10:26:03.113Z,1.80
2018-11-23T10:28:30.856Z,2.00
2018-11-23T10:30:58.589Z,2.10
2018-11-23T10:33:28.338Z,2.10
2018-11-23T10:35:54.217Z,2.10
2018-11-23T10:38:21.960Z,2.00
2018-11-23T10:40:49.726Z,2.00
2018-11-23T10:43:17.476Z,2.00
2018-11-23T10:45:48.105Z,2.10
2018-11-23T10:48:15.925Z,2.20
2018-11-23T10:50:43.643Z,2.30
2018-11-23T10:53:14.035Z,2.40
2018-11-23T10:55:43.679Z,2.60
2018-11-23T10:58:11.483Z,2.80
2018-11-23T11:00:45.665Z,2.90
2018-11-23T11:03:33.316Z,2.90
2018-11-23T11:06:09.071Z,3.00
2018-11-23T11:08:38.213Z,3.00
2018-11-23T11:11:06.460Z,2.90
2018-11-23T11:13:35.013Z,2.90
2018-11-23T11:16:02.856Z,2.80
2018-11-23T11:18:30.758Z,2.70
2018-11-23T11:20:58.545Z,2.40
2018-11-23T11:23:27.106Z,2.30
2018-11-23T11:25:55.748Z,2.30
2018-11-23T11:28:24.299Z,2.40
2018-11-23T11:30:52.080Z,2.30
2018-11-23T11:33:19.882Z,2.20
2018-11-23T11:35:47.641Z,2.00
2018-11-23T11:38:15.389Z,2.00
2018-11-23T11:40:43.186Z,2.10
2018-11-23T11:43:10.930Z,2.00
2018-11-23T11:45:38.693Z,2.00
2018-11-23T11:48:06.498Z,2.00
2018-11-23T11:50:34.453Z,2.10
2018-11-23T11:53:02.228Z,2.40
2018-11-23T11:55:29.977Z,2.40
2018-11-23T11:57:57.755Z,2.20
2018-11-23T12:00:26.218Z,2.10
2018-11-23T12:02:54.518Z,2.00
2018-11-23T12:05:22.372Z,2.00
2018-11-23T12:07:50.213Z,2.00
2018-11-23T12:10:20.354Z,2.00
2018-11-23T12:12:48.185Z,1.90
2018-11-23T12:15:16.293Z,1.90
2018-11-23T12:17:44.165Z,1.90
2018-11-23T12:20:13.972Z,1.90
2018-11-23T12:22:41.769Z,1.90
2018-11-23T12:25:09.761Z,1.90
2018-11-23T12:27:37.527Z,1.90
2018-11-23T12:30:08.885Z,2.00
2018-11-23T12:32:36.737Z,1.90
2018-11-23T12:35:05.692Z,1.90
2018-11-23T12:37:33.461Z,2.10
2018-11-23T12:40:01.201Z,2.00
2018-11-23T12:42:28.962Z,2.10
2018-11-23T12:44:56.741Z,2.10
2018-11-23T12:47:24.493Z,2.00
2018-11-23T12:49:52.298Z,2.00
2018-11-23T12:52:20.043Z,1.90
2018-11-23T12:54:47.792Z,2.10
2018-11-23T12:57:15.532Z,2.20
2018-11-23T12:59:43.287Z,2.10
2018-11-23T13:02:11.061Z,1.90
2018-11-23T13:04:38.842Z,1.90
2018-11-23T13:07:06.576Z,1.90
2018-11-23T13:09:34.338Z,1.90
2018-11-23T13:12:02.131Z,1.90
2018-11-23T13:14:29.840Z,2.00
2018-11-23T13:16:57.617Z,2.10
2018-11-23T13:19:25.357Z,2.20
2018-11-23T13:21:53.121Z,2.20
2018-11-23T13:24:20.909Z,2.00
2018-11-23T13:26:48.670Z,2.00
2018-11-23T13:29:16.505Z,2.10
2018-11-23T13:31:44.230Z,2.20
2018-11-23T13:34:12.043Z,2.30
2018-11-23T13:36:39.814Z,2.40
2018-11-23T13:39:07.913Z,2.40
2018-11-23T13:41:35.765Z,2.40
2018-11-23T13:44:03.545Z,2.40
2018-11-23T13:46:31.335Z,2.40
2018-11-23T13:48:59.150Z,2.30
2018-11-23T13:51:26.934Z,2.10
2018-11-23T13:53:54.855Z,2.20
2018-11-23T13:56:22.626Z,2.30
2018-11-23T13:58:50.479Z,2.20
2018-11-23T14:01:18.277Z,2.10
2018-11-23T14:03:46.028Z,2.10
2018-11-23T14:06:13.780Z,2.10
2018-11-23T14:08:41.536Z,2.20
2018-11-23T14:11:09.330Z,2.10
2018-11-23T14:13:37.089Z,1.90
2018-11-23T14:16:05.762Z,1.70
2018-11-23T14:18:33.489Z,1.50
2018-11-23T14:21:01.275Z,1.50
2018-11-23T14:23:29.005Z,1.50
2018-11-23T14:25:56.797Z,1.50
2018-11-23T14:28:24.564Z,1.50
2018-11-23T14:30:52.302Z,1.50
2018-11-23T14:33:20.124Z,1.60
2018-11-23T14:35:47.882Z,1.80
2018-11-23T14:38:15.627Z,1.90
2018-11-23T14:40:43.415Z,1.80
2018-11-23T14:43:11.172Z,1.70
2018-11-23T14:45:38.961Z,1.70
2018-11-23T14:48:07.838Z,1.70
2018-11-23T14:50:40.126Z,1.70
2018-11-23T14:53:07.924Z,1.70
2018-11-23T14:55:35.678Z,1.70
2018-11-23T14:58:03.501Z,1.60
2018-11-23T15:00:33.797Z,1.60
2018-11-23T15:03:02.401Z,1.60
2018-11-23T15:05:30.184Z,1.60
2018-11-23T15:07:57.953Z,1.80
2018-11-23T15:10:27.055Z,1.90
2018-11-23T15:12:56.030Z,1.90
2018-11-23T15:15:28.222Z,1.90
2018-11-23T15:17:56.665Z,1.60
2018-11-23T15:20:26.934Z,1.50
2018-11-23T15:22:58.293Z,1.40
2018-11-23T15:25:26.058Z,1.30
2018-11-23T15:27:53.909Z,1.30
2018-11-23T15:30:24.410Z,1.30
2018-11-23T15:32:52.240Z,1.30
2018-11-23T15:35:19.991Z,1.30
2018-11-23T15:37:47.779Z,1.30
2018-11-23T15:40:19.014Z,1.40
2018-11-23T15:42:47.548Z,1.40
2018-11-23T15:45:16.814Z,1.60
2018-11-23T15:47:44.607Z,1.70
2018-11-23T15:50:15.739Z,1.60
2018-11-23T15:52:43.884Z,1.40
2018-11-23T15:55:14.287Z,1.40
2018-11-23T15:57:42.974Z,1.40
2018-11-23T16:00:17.739Z,1.40
2018-11-23T16:02:46.168Z,1.30
2018-11-23T16:05:14.194Z,1.30
2018-11-23T16:07:42.175Z,1.30
2018-11-23T16:10:14.418Z,1.30
2018-11-23T16:12:42.888Z,1.30
2018-11-23T16:15:10.690Z,1.30
2018-11-23T16:17:38.807Z,1.30
2018-11-23T16:20:10.062Z,1.30
2018-11-23T16:22:37.857Z,1.50
2018-11-23T16:25:07.031Z,1.70
2018-11-23T16:27:34.801Z,1.90
2018-11-23T16:30:03.020Z,1.80
2018-11-23T16:32:30.815Z,1.70
2018-11-23T16:34:58.621Z,1.50
2018-11-23T16:37:26.366Z,1.50
2018-11-23T16:39:54.093Z,1.40
2018-11-23T16:42:21.862Z,1.50
2018-11-23T16:44:49.622Z,1.40
2018-11-23T16:47:17.391Z,1.40
2018-11-23T16:49:45.140Z,1.50
2018-11-23T16:52:12.889Z,1.40
2018-11-23T16:54:40.623Z,1.30
2018-11-23T16:57:08.422Z,1.30
2018-11-23T16:59:36.183Z,1.30
2018-11-23T17:02:03.593Z,1.30
2018-11-23T17:04:31.034Z,1.40
2018-11-23T17:06:58.423Z,1.40
2018-11-23T17:09:25.905Z,1.30
2018-11-23T17:11:53.283Z,1.30
2018-11-23T17:14:20.721Z,1.40
2018-11-23T17:16:48.105Z,1.30
2018-11-23T17:19:15.498Z,1.30
2018-11-23T17:21:42.920Z,1.30
2018-11-23T17:24:10.397Z,1.30
2018-11-23T17:26:37.781Z,1.30
2018-11-23T17:29:05.423Z,1.40
2018-11-23T17:31:32.817Z,1.40
2018-11-23T17:34:00.249Z,1.30
2018-11-23T17:36:27.625Z,1.20
2018-11-23T17:38:55.039Z,1.10
2018-11-23T17:41:22.427Z,1.00
2018-11-23T17:43:49.817Z,1.00
2018-11-23T17:46:17.279Z,1.00
2018-11-23T17:48:44.651Z,1.00
2018-11-23T17:51:12.033Z,0.90
2018-11-23T17:53:39.479Z,0.90
2018-11-23T17:56:06.853Z,0.90
2018-11-23T17:58:34.282Z,0.90
2018-11-23T18:01:01.702Z,0.90
2018-11-23T18:03:29.090Z,0.90
2018-11-23T18:05:56.493Z,0.90
2018-11-23T18:08:23.911Z,0.90
2018-11-23T18:10:51.348Z,0.90
2018-11-23T18:13:18.728Z,0.90
2018-11-23T18:15:46.118Z,0.90
2018-11-23T18:18:13.551Z,0.90
2018-11-23T18:20:40.970Z,0.90
2018-11-23T18:23:08.425Z,1.00
2018-11-23T18:25:37.532Z,1.00
2018-11-23T18:28:05.018Z,1.00
2018-11-23T18:30:33.100Z,1.00
2018-11-23T18:33:01.911Z,1.00
2018-11-23T18:35:29.349Z,1.10
2018-11-23T18:37:56.814Z,1.20
2018-11-23T18:40:24.188Z,1.30
2018-11-23T18:42:51.669Z,1.30
2018-11-23T18:45:19.066Z,1.20
2018-11-23T18:47:46.472Z,1.10
2018-11-23T18:50:15.063Z,1.10
2018-11-23T18:52:42.622Z,1.00
2018-11-23T18:55:13.622Z,1.00
2018-11-23T18:57:38.326Z,1.00
2018-11-23T19:00:14.448Z,1.10
2018-11-23T19:02:42.866Z,1.10
2018-11-23T19:05:13.563Z,1.20
2018-11-23T19:07:41.091Z,1.10
2018-11-23T19:10:10.113Z,1.00
2018-11-23T19:12:37.543Z,0.90
2018-11-23T19:15:08.114Z,0.90
2018-11-23T19:17:35.562Z,0.80
2018-11-23T19:20:04.274Z,0.80
2018-11-23T19:22:31.698Z,0.90
2018-11-23T19:24:59.081Z,0.90
2018-11-23T19:27:26.516Z,0.90
2018-11-23T19:29:53.905Z,0.80
2018-11-23T19:32:21.331Z,0.90
2018-11-23T19:34:48.755Z,0.90
2018-11-23T19:37:16.154Z,0.90
2018-11-23T19:39:43.538Z,0.90
2018-11-23T19:42:11.022Z,0.90
2018-11-23T19:44:38.409Z,0.80
2018-11-23T19:47:05.894Z,0.80
2018-11-23T19:49:33.337Z,0.80
2018-11-23T19:52:00.720Z,0.80
2018-11-23T19:54:28.099Z,0.80
2018-11-23T19:56:55.516Z,0.70
2018-11-23T19:59:23.205Z,0.70
2018-11-23T20:01:50.633Z,0.80
2018-11-23T20:04:18.061Z,0.80
2018-11-23T20:06:45.429Z,0.70
2018-11-23T20:09:12.793Z,0.60
2018-11-23T20:11:40.243Z,0.60
2018-11-23T20:14:07.670Z,0.60
2018-11-23T20:16:35.101Z,0.60
2018-11-23T20:19:02.528Z,0.60
2018-11-23T20:21:29.938Z,0.60
2018-11-23T20:23:57.362Z,0.50
2018-11-23T20:26:24.826Z,0.40
2018-11-23T20:28:52.263Z,0.40
2018-11-23T20:31:19.638Z,0.40
2018-11-23T20:33:47.063Z,0.40
2018-11-23T20:36:14.504Z,0.40
2018-11-23T20:38:41.983Z,0.40
2018-11-23T20:41:09.453Z,0.30
2018-11-23T20:43:36.834Z,0.30
2018-11-23T20:46:04.542Z,0.30
2018-11-23T20:48:31.946Z,0.30
2018-11-23T20:50:59.347Z,0.30
2018-11-23T20:53:26.750Z,0.20
2018-11-23T20:55:54.135Z,0.20
2018-11-23T20:58:21.550Z,0.30
2018-11-23T21:00:48.998Z,0.30
2018-11-23T21:03:16.378Z,0.20
2018-11-23T21:05:43.764Z,0.20
2018-11-23T21:08:11.188Z,0.20
2018-11-23T21:10:38.575Z,0.30
2018-11-23T21:13:05.984Z,0.30
2018-11-23T21:15:33.374Z,0.30
2018-11-23T21:18:01.997Z,0.30
2018-11-23T21:20:29.414Z,0.30
2018-11-23T21:22:56.914Z,0.20
2018-11-23T21:25:24.374Z,0.20
2018-11-23T21:27:51.773Z,0.20
2018-11-23T21:30:20.394Z,0.30
2018-11-23T21:32:47.808Z,0.30
2018-11-23T21:35:15.261Z,0.30
2018-11-23T21:37:42.699Z,0.30
2018-11-23T21:40:11.955Z,0.20
2018-11-23T21:42:39.389Z,0.20
2018-11-23T21:45:09.282Z,0.20
2018-11-23T21:47:36.966Z,0.30
2018-11-23T21:50:07.116Z,0.30
2018-11-23T21:52:34.534Z,0.20
2018-11-23T21:55:01.944Z,0.20
2018-11-23T21:57:29.382Z,0.20
2018-11-23T21:59:56.860Z,0.10
2018-11-23T22:02:24.297Z,0.10
2018-11-23T22:04:51.813Z,0.20
2018-11-23T22:07:19.215Z,0.20
2018-11-23T22:09:46.578Z,0.30
2018-11-23T22:12:14.027Z,0.20
2018-11-23T22:14:41.458Z,0.20
2018-11-23T22:17:08.880Z,0.20
2018-11-23T22:19:36.319Z,0.30
2018-11-23T22:22:03.957Z,0.30
2018-11-23T22:24:31.349Z,0.30
2018-11-23T22:26:58.812Z,0.30
2018-11-23T22:29:26.246Z,0.30
2018-11-23T22:31:53.640Z,0.40
2018-11-23T22:34:21.110Z,0.40
2018-11-23T22:36:48.508Z,0.40
2018-11-23T22:39:15.954Z,0.30
2018-11-23T22:41:43.354Z,0.30
2018-11-23T22:44:10.767Z,0.30
2018-11-23T22:46:38.202Z,0.30
2018-11-23T22:49:05.633Z,0.30
2018-11-23T22:51:33.022Z,0.30
2018-11-23T22:54:00.433Z,0.30
2018-11-23T22:56:27.886Z,0.30
2018-11-23T22:58:55.676Z,0.30
2018-11-23T23:01:22.771Z,0.20
2018-11-23T23:03:50.155Z,0.20
2018-11-23T23:06:17.582Z,0.20
2018-11-23T23:08:45.050Z,0.30
2018-11-23T23:11:12.435Z,0.20
2018-11-23T23:13:39.903Z,0.20
2018-11-23T23:16:07.273Z,0.20
2018-11-23T23:18:34.724Z,0.30
2018-11-23T23:21:02.160Z,0.30
2018-11-23T23:23:29.549Z,0.20
2018-11-23T23:25:56.970Z,0.30
2018-11-23T23:28:24.385Z,0.30
2018-11-23T23:30:51.787Z,0.20
2018-11-23T23:33:19.257Z,0.10
2018-11-23T23:35:46.618Z,0.10
2018-11-23T23:38:14.002Z,0.10
2018-11-23T23:40:41.424Z,0.20
2018-11-23T23:43:08.798Z,0.10
2018-11-23T23:45:36.212Z,0.10
2018-11-23T23:48:03.650Z,0.10
2018-11-23T23:50:31.079Z,0.10
2018-11-23T23:52:58.500Z,0.10
2018-11-23T23:55:25.869Z,0.10
2018-11-23T23:57:53.322Z,0.10
